Freeport, Albertus Airport (KFEP)

NameAlbertus Airport
CityFreeport
CountryUnited States
ICAOKFEP
IATAFEP
Altitude262 m
CoordinatesGoogle Map
Live Air TrafficLiveATC.net
METARKFEP 200455Z AUTO 00000KT 4SM BR OVC010 03/03 A3000 RMK AO2 T00290029
2019-11-20 04:55:00 Wind: North (0°) 0 m/s - Visibility: 6437.36 m - Weather: Mist - Temperature: 3 °C - Dew point: 3 °C - Humidity: 100% - Pressure: 1015.92 hPa

Sorry, no flights used the airport in this database.